Terminal Aerodrome Forecast
Issued by NWS

Home | Current Version | Previous Version | Text Only | Print | Product List | Glossary On
Versions: 1 2 3 4 5 6 7 8 9 10 11 12
000
FTUS46 KLOX 212300
TAFBUR
TAF
KBUR 212336Z 2200/2224 14005KT P6SM BKN200 WS015/36025KT
     FM220500 02006KT P6SM SCT200
     FM221500 VRB03KT 6SM HZ SCT200
     FM221900 08005KT P6SM SKC
     FM222200 23007KT P6SM SKC=

USA.gov is the U.S. government's official web portal to all federal, state and local government web resources and services.